createdAt,value
2023-03-16T00:01:22.293Z,10.37
2023-03-16T00:04:27.848Z,9.32
2023-03-16T00:07:32.476Z,8.10
2023-03-16T00:10:34.178Z,11.07
2023-03-16T00:13:39.028Z,7.43
2023-03-16T00:16:40.746Z,11.60
2023-03-16T00:19:50.032Z,10.57
2023-03-16T00:22:51.651Z,11.33
2023-03-16T00:26:02.885Z,9.95
2023-03-16T00:29:04.682Z,8.90
2023-03-16T00:32:09.434Z,10.00
2023-03-16T00:35:14.037Z,8.05
2023-03-16T00:38:22.272Z,9.48
2023-03-16T00:41:23.881Z,8.82
2023-03-16T00:44:25.547Z,10.95
2023-03-16T00:47:29.362Z,11.00
2023-03-16T00:50:34.359Z,10.38
2023-03-16T00:53:40.796Z,9.30
2023-03-16T00:56:43.123Z,9.05
2023-03-16T00:59:51.836Z,9.55
2023-03-16T01:02:53.922Z,8.17
2023-03-16T01:06:03.752Z,9.07
2023-03-16T01:09:05.783Z,14.43
2023-03-16T01:12:17.973Z,10.05
2023-03-16T01:15:19.791Z,7.35
2023-03-16T01:18:22.481Z,10.35
2023-03-16T01:21:28.583Z,11.23
2023-03-16T01:24:33.219Z,10.20
2023-03-16T01:27:35.051Z,8.85
2023-03-16T01:30:36.861Z,8.35
2023-03-16T01:33:38.575Z,7.90
2023-03-16T01:36:40.186Z,10.63
2023-03-16T01:39:45.490Z,9.88
2023-03-16T01:43:02.699Z,8.93
2023-03-16T01:46:07.526Z,9.63
2023-03-16T01:49:12.497Z,7.82
2023-03-16T01:52:25.541Z,8.55
2023-03-16T01:55:30.165Z,8.77
2023-03-16T01:58:35.659Z,10.45
2023-03-16T02:01:37.454Z,12.43
2023-03-16T02:04:48.511Z,10.57
2023-03-16T02:07:51.633Z,9.82
2023-03-16T02:10:58.627Z,9.48
2023-03-16T02:14:06.825Z,9.30
2023-03-16T02:17:08.532Z,11.05
2023-03-16T02:20:17.900Z,8.13
2023-03-16T02:23:21.139Z,11.25
2023-03-16T02:26:29.779Z,10.97
2023-03-16T02:29:52.828Z,10.07
2023-03-16T02:32:54.566Z,11.23
2023-03-16T02:35:56.297Z,9.37
2023-03-16T02:39:01.760Z,12.18
2023-03-16T02:42:03.905Z,13.75
2023-03-16T02:45:06.171Z,7.50
2023-03-16T02:48:10.296Z,10.25
2023-03-16T02:51:12.038Z,11.27
2023-03-16T02:54:17.334Z,8.30
2023-03-16T02:57:18.920Z,8.87
2023-03-16T03:00:25.392Z,10.63
2023-03-16T03:03:30.937Z,12.13
2023-03-16T03:06:32.707Z,10.20
2023-03-16T03:09:37.411Z,10.32
2023-03-16T03:12:39.076Z,12.18
2023-03-16T03:15:40.775Z,10.82
2023-03-16T03:18:42.622Z,8.88
2023-03-16T03:21:45.050Z,10.52
2023-03-16T03:24:49.655Z,10.00
2023-03-16T03:27:51.358Z,13.40
2023-03-16T03:30:56.343Z,10.98
2023-03-16T03:33:57.955Z,14.88
2023-03-16T03:36:59.628Z,12.40
2023-03-16T03:40:08.247Z,10.43
2023-03-16T03:43:13.728Z,11.38
2023-03-16T03:46:15.412Z,11.95
2023-03-16T03:49:20.226Z,11.80
2023-03-16T03:52:21.864Z,12.65
2023-03-16T03:55:27.678Z,12.93
2023-03-16T03:58:32.305Z,10.80
2023-03-16T04:01:33.921Z,9.05
2023-03-16T04:04:35.718Z,12.13
2023-03-16T04:07:37.335Z,13.67
2023-03-16T04:10:42.652Z,9.60
2023-03-16T04:13:47.294Z,13.82
2023-03-16T04:16:48.973Z,13.30
2023-03-16T04:19:50.665Z,10.77
2023-03-16T04:22:58.483Z,14.05
2023-03-16T04:26:04.816Z,16.48
2023-03-16T04:29:09.439Z,12.60
2023-03-16T04:32:11.667Z,10.27
2023-03-16T04:35:13.679Z,10.48
2023-03-16T04:38:15.321Z,10.43
2023-03-16T04:41:17.016Z,11.05
2023-03-16T04:44:21.736Z,14.00
2023-03-16T04:47:23.546Z,13.60
2023-03-16T04:50:28.471Z,11.52
2023-03-16T04:53:34.711Z,9.82
2023-03-16T04:56:39.293Z,12.73
2023-03-16T04:59:41.706Z,14.77
2023-03-16T05:02:46.718Z,11.32
2023-03-16T05:05:48.581Z,14.23
2023-03-16T05:08:53.247Z,11.40
2023-03-16T05:11:54.896Z,12.13
2023-03-16T05:14:59.799Z,13.80
2023-03-16T05:18:01.697Z,13.20
2023-03-16T05:21:06.317Z,13.55
2023-03-16T05:24:11.846Z,14.27
2023-03-16T05:27:13.430Z,13.70
2023-03-16T05:30:20.195Z,11.67
2023-03-16T05:33:22.210Z,11.65
2023-03-16T05:36:24.805Z,12.60
2023-03-16T05:39:29.722Z,13.33
2023-03-16T05:42:31.417Z,12.95
2023-03-16T05:45:33.715Z,15.18
2023-03-16T05:48:35.841Z,12.90
2023-03-16T05:51:37.642Z,15.15
2023-03-16T05:54:39.858Z,11.73
2023-03-16T05:57:41.652Z,12.05
2023-03-16T06:00:43.249Z,13.27
2023-03-16T06:03:44.844Z,13.40
2023-03-16T06:06:46.745Z,14.07
2023-03-16T06:09:48.515Z,14.63
2023-03-16T06:12:50.152Z,11.40
2023-03-16T06:15:51.806Z,12.88
2023-03-16T06:18:53.437Z,12.30
2023-03-16T06:21:55.116Z,16.45
2023-03-16T06:24:56.777Z,12.88
2023-03-16T06:27:58.388Z,13.63
2023-03-16T06:31:00.011Z,14.33
2023-03-16T06:34:01.798Z,13.07
2023-03-16T06:37:05.544Z,11.90
2023-03-16T06:40:10.173Z,14.30
2023-03-16T06:43:12.204Z,13.80
2023-03-16T06:46:13.838Z,13.15
2023-03-16T06:49:15.797Z,12.90
2023-03-16T06:52:17.480Z,15.27
2023-03-16T06:55:19.189Z,12.75
2023-03-16T06:58:21.380Z,14.57
2023-03-16T07:01:23.252Z,12.57
2023-03-16T07:04:25.694Z,14.75
2023-03-16T07:07:29.303Z,12.95
2023-03-16T07:10:31.376Z,13.73
2023-03-16T07:13:33.181Z,13.07
2023-03-16T07:16:35.001Z,14.53
2023-03-16T07:19:36.975Z,10.80
2023-03-16T07:22:39.607Z,12.90
2023-03-16T07:25:42.328Z,15.05
2023-03-16T07:28:44.065Z,13.55
2023-03-16T07:31:45.950Z,11.73
2023-03-16T07:34:48.020Z,12.60
2023-03-16T07:37:50.000Z,13.43
2023-03-16T07:40:54.449Z,12.93
2023-03-16T07:43:56.130Z,14.75
2023-03-16T07:46:57.899Z,14.23
2023-03-16T07:50:00.145Z,14.83
2023-03-16T07:53:01.820Z,13.32
2023-03-16T07:56:03.777Z,11.00
2023-03-16T07:59:05.574Z,12.35
2023-03-16T08:02:10.607Z,10.83
2023-03-16T08:05:13.120Z,12.17
2023-03-16T08:08:16.037Z,16.75
2023-03-16T08:11:23.948Z,11.18
2023-03-16T08:14:25.600Z,10.77
2023-03-16T08:17:27.371Z,13.33
2023-03-16T08:20:29.920Z,12.27
2023-03-16T08:23:33.810Z,11.45
2023-03-16T08:26:39.526Z,11.32
2023-03-16T08:29:41.356Z,13.63
2023-03-16T08:32:43.167Z,11.60
2023-03-16T08:35:44.982Z,10.60
2023-03-16T08:39:03.654Z,12.30
2023-03-16T08:42:08.153Z,11.88
2023-03-16T08:45:13.554Z,12.23
2023-03-16T08:48:15.901Z,11.63
2023-03-16T08:51:17.738Z,11.07
2023-03-16T08:54:20.076Z,11.48
2023-03-16T08:57:21.942Z,9.82
2023-03-16T09:00:23.835Z,13.10
2023-03-16T09:03:26.122Z,11.80
2023-03-16T09:06:27.857Z,10.83
2023-03-16T09:09:30.848Z,11.82
2023-03-16T09:12:34.932Z,11.07
2023-03-16T09:15:36.805Z,11.20
2023-03-16T09:18:38.787Z,11.27
2023-03-16T09:21:40.544Z,13.47
2023-03-16T09:24:42.990Z,9.80
2023-03-16T09:27:44.838Z,12.20
2023-03-16T09:30:47.663Z,11.18
2023-03-16T09:33:49.483Z,10.93
2023-03-16T09:36:51.346Z,11.90
2023-03-16T09:39:57.927Z,10.38
2023-03-16T09:43:07.257Z,9.40
2023-03-16T09:46:13.879Z,8.77
2023-03-16T09:49:17.972Z,9.37
2023-03-16T09:52:34.178Z,10.17
2023-03-16T09:55:37.818Z,10.48
2023-03-16T09:58:43.225Z,8.82
2023-03-16T10:02:04.419Z,10.27
2023-03-16T10:05:11.470Z,12.27
2023-03-16T10:08:13.189Z,9.70
2023-03-16T10:11:29.382Z,9.32
2023-03-16T10:14:48.963Z,9.50
2023-03-16T10:18:04.172Z,9.85
2023-03-16T10:21:05.893Z,8.98
2023-03-16T10:25:00.223Z,8.70
2023-03-16T10:28:02.197Z,9.25
2023-03-16T10:31:04.698Z,10.93
2023-03-16T10:34:06.754Z,9.18
2023-03-16T10:37:09.977Z,8.25
2023-03-16T10:40:13.607Z,11.33
2023-03-16T10:43:15.405Z,10.97
2023-03-16T10:46:18.105Z,9.30
2023-03-16T10:49:25.942Z,9.88
2023-03-16T10:52:53.441Z,9.73
2023-03-16T10:55:59.723Z,9.50
2023-03-16T10:59:01.608Z,10.80
2023-03-16T11:02:17.102Z,9.13
2023-03-16T11:05:18.829Z,8.25
2023-03-16T11:08:21.939Z,7.45
2023-03-16T11:11:31.268Z,7.63
2023-03-16T11:14:33.844Z,8.70
2023-03-16T11:17:38.383Z,8.13
2023-03-16T11:20:40.683Z,8.73
2023-03-16T11:23:46.574Z,7.95
2023-03-16T11:26:48.967Z,8.00
2023-03-16T11:30:02.319Z,8.33
2023-03-16T11:33:04.270Z,9.40
2023-03-16T11:36:44.504Z,8.35
2023-03-16T11:40:15.445Z,8.80
2023-03-16T11:43:30.730Z,8.93
2023-03-16T11:46:42.060Z,9.80
2023-03-16T11:49:49.950Z,8.57
2023-03-16T11:53:14.650Z,8.88
2023-03-16T11:56:24.289Z,9.18
2023-03-16T12:00:01.485Z,9.47
2023-03-16T12:03:24.934Z,8.57
2023-03-16T12:06:54.668Z,8.85
2023-03-16T12:10:18.632Z,9.82
2023-03-16T12:13:33.199Z,9.50
2023-03-16T12:16:48.802Z,9.20
2023-03-16T12:20:00.590Z,8.40
2023-03-16T12:23:15.008Z,9.60
2023-03-16T12:26:17.637Z,9.90
2023-03-16T12:29:36.286Z,11.07
2023-03-16T12:32:50.487Z,8.73
2023-03-16T12:36:00.967Z,9.17
2023-03-16T12:39:12.049Z,9.32
2023-03-16T12:42:34.996Z,9.18
2023-03-16T12:45:49.332Z,8.32
2023-03-16T12:48:58.920Z,9.13
2023-03-16T12:52:02.432Z,8.73
2023-03-16T12:55:33.536Z,8.05
2023-03-16T12:58:35.877Z,8.57
2023-03-16T13:01:48.174Z,11.82
2023-03-16T13:05:01.793Z,8.87
2023-03-16T13:08:13.793Z,9.37
2023-03-16T13:11:16.467Z,8.48
2023-03-16T13:14:38.429Z,11.48
2023-03-16T13:17:40.233Z,10.07
2023-03-16T13:20:57.965Z,8.73
2023-03-16T13:24:01.496Z,8.87
2023-03-16T13:27:06.418Z,8.77
2023-03-16T13:30:20.018Z,8.73
2023-03-16T13:33:23.718Z,7.57
2023-03-16T13:36:27.272Z,8.10
2023-03-16T13:39:30.341Z,6.40
2023-03-16T13:42:33.474Z,6.68
2023-03-16T13:45:38.868Z,6.75
2023-03-16T13:48:41.852Z,7.88
2023-03-16T13:51:45.242Z,7.30
2023-03-16T13:54:47.900Z,6.00
2023-03-16T13:57:49.664Z,7.00
2023-03-16T14:00:55.192Z,6.63
2023-03-16T14:03:59.624Z,7.68
2023-03-16T14:07:02.450Z,8.50
2023-03-16T14:10:05.409Z,7.00
2023-03-16T14:13:30.010Z,6.03
2023-03-16T14:16:32.473Z,6.35
2023-03-16T14:19:45.987Z,6.85
2023-03-16T14:22:48.064Z,6.70
2023-03-16T14:25:50.377Z,6.63
2023-03-16T14:29:03.093Z,6.55
2023-03-16T14:32:30.340Z,6.72
2023-03-16T14:35:43.060Z,6.05
2023-03-16T14:38:48.397Z,5.67
2023-03-16T14:41:50.652Z,5.97
2023-03-16T14:44:52.450Z,6.07
2023-03-16T14:47:54.124Z,6.00
2023-03-16T14:51:00.217Z,6.18
2023-03-16T14:54:01.889Z,5.70
2023-03-16T14:57:05.706Z,4.77
2023-03-16T15:00:10.257Z,5.78
2023-03-16T15:03:13.576Z,5.78
2023-03-16T15:06:15.458Z,6.35
2023-03-16T15:09:39.318Z,5.43
2023-03-16T15:12:44.143Z,6.30
2023-03-16T15:15:48.841Z,6.22
2023-03-16T15:18:56.283Z,5.70
2023-03-16T15:21:59.000Z,5.88
2023-03-16T15:25:00.864Z,5.70
2023-03-16T15:28:15.998Z,5.73
2023-03-16T15:31:17.722Z,7.95
2023-03-16T15:34:19.519Z,5.65
2023-03-16T15:37:27.713Z,5.57
2023-03-16T15:40:29.972Z,4.20
2023-03-16T15:43:32.079Z,6.47
2023-03-16T15:46:33.887Z,5.72
2023-03-16T15:49:47.290Z,6.30
2023-03-16T15:53:17.806Z,4.57
2023-03-16T15:56:41.200Z,6.30
2023-03-16T15:59:47.611Z,5.70
2023-03-16T16:02:49.259Z,5.05
2023-03-16T16:05:54.999Z,7.57
2023-03-16T16:08:56.696Z,6.07
2023-03-16T16:11:58.440Z,6.07
2023-03-16T16:15:00.780Z,5.53
2023-03-16T16:18:20.760Z,6.57
2023-03-16T16:21:25.218Z,5.97
2023-03-16T16:24:26.878Z,5.68
2023-03-16T16:27:28.757Z,8.67
2023-03-16T16:30:31.431Z,5.78
2023-03-16T16:33:34.482Z,6.60
2023-03-16T16:36:39.449Z,5.75
2023-03-16T16:39:41.547Z,5.83
2023-03-16T16:42:44.636Z,8.13
2023-03-16T16:45:47.645Z,7.75
2023-03-16T16:49:00.200Z,7.53
2023-03-16T16:52:02.350Z,6.82
2023-03-16T16:55:04.248Z,6.27
2023-03-16T16:58:12.375Z,7.47
2023-03-16T17:01:26.730Z,6.63
2023-03-16T17:04:29.021Z,7.10
2023-03-16T17:07:31.324Z,8.15
2023-03-16T17:10:33.336Z,8.50
2023-03-16T17:13:39.153Z,7.10
2023-03-16T17:16:40.844Z,7.65
2023-03-16T17:19:46.586Z,5.72
2023-03-16T17:22:48.587Z,5.67
2023-03-16T17:25:50.633Z,5.55
2023-03-16T17:29:04.225Z,6.82
2023-03-16T17:32:14.570Z,6.53
2023-03-16T17:35:16.398Z,4.73
2023-03-16T17:38:25.168Z,4.65
2023-03-16T17:41:27.658Z,7.40
2023-03-16T17:44:32.658Z,5.70
2023-03-16T17:47:39.522Z,7.03
2023-03-16T17:50:41.676Z,7.25
2023-03-16T17:53:44.100Z,7.80
2023-03-16T17:56:46.055Z,7.65
2023-03-16T17:59:47.884Z,7.15
2023-03-16T18:02:56.971Z,9.52
2023-03-16T18:05:58.652Z,8.48
2023-03-16T18:09:01.054Z,7.23
2023-03-16T18:12:03.064Z,8.50
2023-03-16T18:15:04.953Z,10.68
2023-03-16T18:18:09.361Z,8.50
2023-03-16T18:21:21.897Z,8.10
2023-03-16T18:24:26.757Z,7.25
2023-03-16T18:27:28.431Z,8.35
2023-03-16T18:30:30.536Z,9.68
2023-03-16T18:33:34.328Z,9.50
2023-03-16T18:36:36.746Z,9.48
2023-03-16T18:39:42.081Z,10.77
2023-03-16T18:42:43.882Z,10.75
2023-03-16T18:45:46.294Z,9.77
2023-03-16T18:48:48.161Z,9.85
2023-03-16T18:51:51.337Z,10.80
2023-03-16T18:54:55.114Z,11.70
2023-03-16T18:57:57.548Z,11.73
2023-03-16T19:00:59.697Z,12.20
2023-03-16T19:04:01.508Z,11.02
2023-03-16T19:07:03.314Z,14.68
2023-03-16T19:10:24.041Z,9.70
2023-03-16T19:13:26.311Z,11.05
2023-03-16T19:16:28.070Z,13.70
2023-03-16T19:19:29.786Z,13.60
2023-03-16T19:22:31.735Z,16.02
2023-03-16T19:25:40.266Z,11.95
2023-03-16T19:28:42.783Z,12.40
2023-03-16T19:31:44.455Z,13.03
2023-03-16T19:34:46.866Z,12.82
2023-03-16T19:37:48.510Z,11.90
2023-03-16T19:40:56.304Z,14.73
2023-03-16T19:44:03.655Z,13.87
2023-03-16T19:47:06.643Z,13.07
2023-03-16T19:50:16.518Z,14.93
2023-03-16T19:53:24.678Z,12.02
2023-03-16T19:56:27.006Z,14.27
2023-03-16T19:59:31.333Z,15.98
2023-03-16T20:02:40.366Z,10.93
2023-03-16T20:05:42.071Z,11.37
2023-03-16T20:08:44.246Z,11.68
2023-03-16T20:11:50.513Z,13.32
2023-03-16T20:14:52.233Z,12.13
2023-03-16T20:17:53.948Z,11.00
2023-03-16T20:20:55.797Z,13.02
2023-03-16T20:24:01.847Z,13.45
2023-03-16T20:27:03.556Z,11.87
2023-03-16T20:30:14.145Z,11.93
2023-03-16T20:33:24.226Z,10.93
2023-03-16T20:36:26.031Z,11.05
2023-03-16T20:39:27.921Z,10.25
2023-03-16T20:42:34.868Z,12.43
2023-03-16T20:45:36.515Z,10.95
2023-03-16T20:48:38.252Z,12.03
2023-03-16T20:51:39.875Z,10.80
2023-03-16T20:54:45.203Z,13.27
2023-03-16T20:57:47.864Z,12.40
2023-03-16T21:00:52.623Z,10.87
2023-03-16T21:03:55.479Z,10.75
2023-03-16T21:06:57.680Z,12.60
2023-03-16T21:09:59.329Z,10.97
2023-03-16T21:13:00.977Z,12.25
2023-03-16T21:16:03.347Z,10.57
2023-03-16T21:19:14.121Z,14.77
2023-03-16T21:22:29.705Z,10.00
2023-03-16T21:25:36.749Z,10.32
2023-03-16T21:28:38.356Z,11.00
2023-03-16T21:31:40.047Z,11.07
2023-03-16T21:34:41.807Z,11.02
2023-03-16T21:37:46.671Z,9.07
2023-03-16T21:40:48.377Z,12.47
2023-03-16T21:43:50.235Z,12.02
2023-03-16T21:46:51.862Z,9.57
2023-03-16T21:49:54.689Z,11.25
2023-03-16T21:52:56.329Z,10.73
2023-03-16T21:56:02.165Z,11.98
2023-03-16T21:59:03.764Z,11.60
2023-03-16T22:02:23.883Z,11.83
2023-03-16T22:05:36.552Z,9.85
2023-03-16T22:08:38.382Z,11.70
2023-03-16T22:11:42.636Z,10.60
2023-03-16T22:14:49.462Z,10.48
2023-03-16T22:17:52.582Z,10.48
2023-03-16T22:20:55.595Z,11.52
2023-03-16T22:23:57.658Z,10.90
2023-03-16T22:26:59.500Z,9.50
2023-03-16T22:30:01.109Z,13.23
2023-03-16T22:33:02.884Z,9.83
2023-03-16T22:36:08.400Z,12.00
2023-03-16T22:39:12.323Z,9.50
2023-03-16T22:42:37.260Z,9.83
2023-03-16T22:45:39.101Z,12.48
2023-03-16T22:48:41.021Z,11.70
2023-03-16T22:51:42.675Z,11.48
2023-03-16T22:54:44.872Z,9.75
2023-03-16T22:57:46.852Z,10.63
2023-03-16T23:00:48.613Z,11.38
2023-03-16T23:03:51.698Z,8.27
2023-03-16T23:06:53.667Z,10.05
2023-03-16T23:09:55.761Z,9.25
2023-03-16T23:12:59.439Z,10.03
2023-03-16T23:16:05.782Z,10.93
2023-03-16T23:19:27.953Z,11.63
2023-03-16T23:22:29.655Z,12.10
2023-03-16T23:25:31.293Z,11.05
2023-03-16T23:28:32.946Z,10.30
2023-03-16T23:31:34.533Z,11.27
2023-03-16T23:34:39.986Z,11.53
2023-03-16T23:37:42.224Z,11.23
2023-03-16T23:40:43.992Z,11.23
2023-03-16T23:43:45.740Z,10.17
2023-03-16T23:46:47.456Z,11.60
2023-03-16T23:49:49.098Z,10.18
2023-03-16T23:52:50.919Z,9.70
2023-03-16T23:55:52.765Z,9.48
2023-03-16T23:58:54.505Z,11.98
